createdAt,value
2023-04-26T00:00:55.042Z,63.10
2023-04-26T00:01:55.004Z,63.20
2023-04-26T00:02:55.068Z,63.20
2023-04-26T00:03:55.134Z,63.10
2023-04-26T00:04:55.257Z,63.10
2023-04-26T00:05:55.130Z,63.10
2023-04-26T00:06:54.957Z,63.20
2023-04-26T00:07:54.924Z,63.20
2023-04-26T00:08:55.416Z,63.20
2023-04-26T00:09:54.904Z,63.10
2023-04-26T00:10:54.885Z,63.20
2023-04-26T00:11:54.877Z,63.20
2023-04-26T00:12:54.858Z,63.20
2023-04-26T00:13:54.844Z,63.20
2023-04-26T00:14:54.829Z,63.20
2023-04-26T00:15:54.861Z,63.20
2023-04-26T00:16:54.829Z,63.20
2023-04-26T00:17:54.863Z,63.20
2023-04-26T00:18:55.020Z,63.20
2023-04-26T00:19:54.762Z,63.31
2023-04-26T00:20:54.754Z,63.31
2023-04-26T00:21:54.736Z,63.31
2023-04-26T00:22:54.725Z,63.20
2023-04-26T00:23:54.712Z,63.31
2023-04-26T00:24:54.697Z,63.31
2023-04-26T00:25:54.685Z,63.31
2023-04-26T00:26:54.684Z,63.31
2023-04-26T00:27:54.654Z,63.31
2023-04-26T00:28:54.950Z,63.31
2023-04-26T00:29:54.650Z,63.31
2023-04-26T00:30:54.625Z,63.31
2023-04-26T00:31:54.653Z,63.31
2023-04-26T00:32:54.653Z,63.31
2023-04-26T00:33:54.585Z,63.31
2023-04-26T00:34:54.564Z,63.31
2023-04-26T00:35:54.552Z,63.31
2023-04-26T00:36:54.537Z,63.31
2023-04-26T00:37:54.521Z,63.31
2023-04-26T00:38:54.763Z,63.31
2023-04-26T00:39:54.495Z,63.31
2023-04-26T00:40:54.486Z,63.40
2023-04-26T00:41:54.478Z,63.31
2023-04-26T00:42:54.455Z,63.40
2023-04-26T00:43:54.446Z,63.40
2023-04-26T00:44:54.429Z,63.40
2023-04-26T00:45:54.499Z,63.40
2023-04-26T00:46:54.403Z,63.43
2023-04-26T00:47:54.461Z,63.43
2023-04-26T00:48:54.710Z,63.43
2023-04-26T00:49:54.417Z,63.43
2023-04-26T00:50:54.355Z,63.54
2023-04-26T00:51:54.343Z,63.43
2023-04-26T00:52:54.325Z,63.40
2023-04-26T00:53:54.310Z,63.43
2023-04-26T00:54:54.301Z,63.43
2023-04-26T00:55:54.295Z,63.54
2023-04-26T00:56:54.271Z,63.43
2023-04-26T00:57:54.256Z,63.54
2023-04-26T00:58:54.429Z,63.54
2023-04-26T00:59:54.231Z,63.54
2023-04-26T01:00:54.272Z,63.54
2023-04-26T01:01:54.203Z,63.54
2023-04-26T01:02:54.339Z,63.54
2023-04-26T01:03:54.365Z,63.54
2023-04-26T01:04:54.211Z,63.54
2023-04-26T01:05:54.145Z,63.54
2023-04-26T01:06:54.132Z,63.54
2023-04-26T01:07:54.120Z,63.54
2023-04-26T01:08:54.416Z,63.54
2023-04-26T01:09:54.099Z,63.54
2023-04-26T01:10:54.083Z,63.54
2023-04-26T01:11:54.065Z,63.54
2023-04-26T01:12:54.056Z,63.54
2023-04-26T01:13:54.041Z,63.54
2023-04-26T01:14:54.030Z,63.54
2023-04-26T01:15:54.013Z,63.64
2023-04-26T01:16:54.082Z,63.54
2023-04-26T01:17:54.042Z,63.64
2023-04-26T01:18:54.348Z,63.64
2023-04-26T01:19:53.956Z,63.64
2023-04-26T01:20:53.982Z,63.64
2023-04-26T01:21:53.932Z,63.64
2023-04-26T01:22:53.926Z,63.64
2023-04-26T01:23:53.905Z,63.64
2023-04-26T01:24:53.900Z,63.64
2023-04-26T01:25:53.876Z,63.64
2023-04-26T01:26:53.883Z,63.64
2023-04-26T01:27:53.851Z,63.74
2023-04-26T01:28:54.096Z,63.64
2023-04-26T01:29:53.832Z,63.64
2023-04-26T01:30:53.867Z,63.74
2023-04-26T01:31:53.811Z,63.74
2023-04-26T01:32:53.842Z,63.74
2023-04-26T01:33:53.822Z,63.74
2023-04-26T01:34:53.804Z,63.74
2023-04-26T01:35:53.813Z,63.74
2023-04-26T01:36:53.762Z,63.64
2023-04-26T01:37:53.804Z,63.64
2023-04-26T01:38:53.876Z,63.74
2023-04-26T01:39:53.832Z,63.74
2023-04-26T01:40:53.689Z,63.74
2023-04-26T01:41:53.665Z,63.74
2023-04-26T01:42:53.651Z,63.74
2023-04-26T01:43:53.634Z,63.74
2023-04-26T01:44:53.629Z,63.74
2023-04-26T01:45:53.639Z,63.74
2023-04-26T01:46:53.597Z,63.74
2023-04-26T01:47:53.643Z,63.74
2023-04-26T01:48:53.819Z,63.74
2023-04-26T01:49:53.558Z,63.74
2023-04-26T01:50:53.552Z,63.74
2023-04-26T01:51:53.529Z,63.84
2023-04-26T01:52:53.559Z,63.84
2023-04-26T01:53:53.507Z,63.74
2023-04-26T01:54:53.489Z,63.84
2023-04-26T01:55:53.474Z,63.84
2023-04-26T01:56:53.461Z,63.84
2023-04-26T01:57:53.448Z,63.84
2023-04-26T01:58:53.555Z,63.84
2023-04-26T01:59:53.423Z,63.84
2023-04-26T02:00:53.410Z,63.84
2023-04-26T02:01:53.456Z,63.84
2023-04-26T02:02:53.465Z,63.84
2023-04-26T02:03:53.372Z,63.84
2023-04-26T02:04:53.431Z,63.84
2023-04-26T02:05:53.340Z,63.84
2023-04-26T02:06:53.330Z,63.84
2023-04-26T02:07:53.318Z,63.84
2023-04-26T02:08:53.619Z,63.84
2023-04-26T02:09:53.287Z,63.84
2023-04-26T02:10:53.276Z,63.84
2023-04-26T02:11:53.261Z,63.84
2023-04-26T02:12:53.250Z,63.84
2023-04-26T02:13:53.237Z,63.84
2023-04-26T02:14:53.229Z,63.84
2023-04-26T02:15:53.279Z,63.84
2023-04-26T02:16:53.203Z,63.84
2023-04-26T02:17:53.229Z,63.84
2023-04-26T02:18:53.537Z,63.84
2023-04-26T02:19:53.156Z,63.84
2023-04-26T02:20:53.147Z,63.84
2023-04-26T02:21:53.129Z,63.84
2023-04-26T02:22:53.118Z,63.84
2023-04-26T02:23:53.113Z,63.84
2023-04-26T02:24:53.113Z,63.84
2023-04-26T02:25:53.078Z,63.84
2023-04-26T02:26:53.106Z,63.84
2023-04-26T02:27:53.052Z,63.84
2023-04-26T02:28:53.179Z,63.84
2023-04-26T02:29:53.024Z,63.84
2023-04-26T02:30:53.012Z,63.84
2023-04-26T02:31:53.066Z,63.95
2023-04-26T02:32:53.064Z,63.95
2023-04-26T02:33:52.972Z,63.95
2023-04-26T02:34:52.958Z,63.95
2023-04-26T02:35:52.947Z,63.95
2023-04-26T02:36:52.931Z,63.95
2023-04-26T02:37:52.915Z,63.95
2023-04-26T02:38:53.530Z,63.95
2023-04-26T02:39:52.890Z,63.95
2023-04-26T02:40:52.901Z,63.95
2023-04-26T02:41:52.866Z,63.95
2023-04-26T02:42:52.858Z,63.95
2023-04-26T02:43:52.834Z,63.95
2023-04-26T02:44:52.833Z,63.95
2023-04-26T02:45:52.810Z,63.95
2023-04-26T02:46:52.929Z,63.95
2023-04-26T02:47:52.897Z,63.95
2023-04-26T02:48:52.856Z,63.95
2023-04-26T02:49:52.759Z,63.95
2023-04-26T02:50:52.747Z,63.95
2023-04-26T02:51:52.726Z,63.95
2023-04-26T02:52:52.715Z,64.05
2023-04-26T02:53:52.700Z,63.95
2023-04-26T02:54:52.686Z,63.95
2023-04-26T02:55:52.693Z,63.95
2023-04-26T02:56:52.685Z,63.95
2023-04-26T02:57:52.650Z,63.95
2023-04-26T02:58:52.932Z,63.95
2023-04-26T02:59:52.623Z,63.95
2023-04-26T03:00:52.639Z,63.95
2023-04-26T03:01:52.630Z,63.95
2023-04-26T03:02:52.800Z,63.95
2023-04-26T03:03:52.650Z,64.05
2023-04-26T03:04:52.551Z,64.05
2023-04-26T03:05:52.541Z,63.95
2023-04-26T03:06:52.536Z,63.95
2023-04-26T03:07:52.510Z,63.95
2023-04-26T03:08:52.856Z,63.95
2023-04-26T03:09:52.494Z,63.95
2023-04-26T03:10:52.474Z,63.95
2023-04-26T03:11:52.462Z,64.05
2023-04-26T03:12:52.477Z,64.05
2023-04-26T03:13:52.432Z,64.05
2023-04-26T03:14:52.418Z,64.05
2023-04-26T03:15:52.416Z,64.05
2023-04-26T03:16:52.477Z,64.05
2023-04-26T03:17:52.469Z,64.05
2023-04-26T03:18:52.622Z,64.05
2023-04-26T03:19:52.359Z,64.05
2023-04-26T03:20:52.343Z,64.05
2023-04-26T03:21:52.327Z,64.05
2023-04-26T03:22:52.315Z,64.05
2023-04-26T03:23:52.304Z,64.05
2023-04-26T03:24:52.309Z,64.05
2023-04-26T03:25:52.279Z,64.16
2023-04-26T03:26:52.260Z,64.16
2023-04-26T03:27:52.265Z,64.16
2023-04-26T03:28:52.664Z,64.05
2023-04-26T03:29:52.224Z,64.16
2023-04-26T03:30:52.206Z,64.05
2023-04-26T03:31:52.261Z,64.05
2023-04-26T03:32:52.219Z,64.05
2023-04-26T03:33:52.169Z,64.05
2023-04-26T03:34:52.155Z,64.05
2023-04-26T03:35:52.146Z,64.05
2023-04-26T03:36:52.125Z,64.18
2023-04-26T03:37:53.409Z,64.16
2023-04-26T03:38:52.382Z,64.18
2023-04-26T03:39:52.089Z,64.18
2023-04-26T03:40:52.076Z,64.18
2023-04-26T03:41:52.063Z,64.18
2023-04-26T03:42:52.054Z,64.16
2023-04-26T03:43:52.038Z,64.18
2023-04-26T03:44:52.069Z,64.18
2023-04-26T03:45:52.046Z,64.18
2023-04-26T03:46:52.001Z,64.18
2023-04-26T03:47:52.007Z,64.18
2023-04-26T03:48:52.244Z,64.18
2023-04-26T03:49:51.957Z,64.18
2023-04-26T03:50:51.952Z,64.18
2023-04-26T03:51:51.936Z,64.18
2023-04-26T03:52:51.913Z,64.18
2023-04-26T03:53:51.910Z,64.28
2023-04-26T03:54:51.887Z,64.18
2023-04-26T03:55:51.889Z,64.18
2023-04-26T03:56:51.865Z,64.18
2023-04-26T03:57:51.848Z,64.18
2023-04-26T03:58:52.061Z,64.18
2023-04-26T03:59:51.818Z,64.18
2023-04-26T04:00:51.830Z,64.18
2023-04-26T04:01:51.793Z,64.18
2023-04-26T04:02:51.895Z,64.18
2023-04-26T04:03:51.986Z,64.18
2023-04-26T04:04:51.838Z,64.18
2023-04-26T04:05:51.770Z,64.18
2023-04-26T04:06:51.724Z,64.16
2023-04-26T04:07:51.713Z,64.18
2023-04-26T04:08:51.970Z,64.18
2023-04-26T04:09:51.689Z,64.08
2023-04-26T04:10:51.673Z,64.18
2023-04-26T04:11:51.672Z,64.18
2023-04-26T04:12:51.650Z,64.18
2023-04-26T04:13:51.635Z,64.18
2023-04-26T04:14:51.623Z,64.18
2023-04-26T04:15:51.609Z,64.18
2023-04-26T04:16:51.617Z,64.18
2023-04-26T04:17:51.604Z,64.18
2023-04-26T04:18:51.804Z,64.18
2023-04-26T04:19:51.552Z,64.18
2023-04-26T04:20:51.548Z,64.18
2023-04-26T04:21:51.528Z,64.18
2023-04-26T04:22:51.511Z,64.28
2023-04-26T04:23:51.507Z,64.28
2023-04-26T04:24:51.486Z,64.18
2023-04-26T04:25:51.485Z,64.18
2023-04-26T04:26:51.479Z,64.18
2023-04-26T04:27:51.445Z,64.18
2023-04-26T04:28:51.562Z,64.18
2023-04-26T04:29:51.418Z,64.18
2023-04-26T04:30:51.420Z,64.18
2023-04-26T04:31:51.391Z,64.18
2023-04-26T04:32:51.437Z,64.18
2023-04-26T04:33:51.375Z,64.18
2023-04-26T04:34:51.356Z,64.18
2023-04-26T04:35:51.340Z,64.08
2023-04-26T04:36:51.331Z,64.05
2023-04-26T04:37:51.311Z,63.95
2023-04-26T04:38:51.492Z,63.95
2023-04-26T04:39:51.302Z,63.84
2023-04-26T04:40:51.269Z,63.84
2023-04-26T04:41:51.261Z,63.74
2023-04-26T04:42:51.246Z,63.74
2023-04-26T04:43:51.231Z,63.74
2023-04-26T04:44:51.224Z,63.74
2023-04-26T04:45:51.207Z,63.64
2023-04-26T04:46:51.223Z,63.64
2023-04-26T04:47:51.259Z,63.64
2023-04-26T04:48:51.513Z,63.64
2023-04-26T04:49:51.153Z,63.54
2023-04-26T04:50:51.134Z,63.54
2023-04-26T04:51:51.123Z,63.43
2023-04-26T04:52:51.108Z,63.43
2023-04-26T04:53:51.094Z,63.43
2023-04-26T04:54:51.083Z,63.33
2023-04-26T04:55:51.075Z,63.20
2023-04-26T04:56:51.057Z,63.20
2023-04-26T04:57:51.045Z,63.20
2023-04-26T04:58:51.275Z,63.20
2023-04-26T04:59:51.016Z,63.20
2023-04-26T05:00:51.003Z,63.20
2023-04-26T05:01:51.040Z,63.20
2023-04-26T05:02:51.138Z,63.10
2023-04-26T05:03:51.350Z,63.10
2023-04-26T05:04:51.110Z,63.10
2023-04-26T05:05:50.940Z,63.00
2023-04-26T05:06:50.926Z,63.00
2023-04-26T05:07:50.934Z,63.00
2023-04-26T05:08:50.898Z,62.90
2023-04-26T05:09:50.902Z,62.90
2023-04-26T05:10:50.877Z,62.90
2023-04-26T05:11:50.862Z,62.90
2023-04-26T05:12:50.845Z,62.79
2023-04-26T05:13:52.838Z,62.79
2023-04-26T05:14:50.822Z,62.79
2023-04-26T05:15:50.812Z,62.69
2023-04-26T05:16:50.839Z,62.69
2023-04-26T05:17:50.798Z,62.69
2023-04-26T05:18:50.767Z,62.69
2023-04-26T05:19:50.759Z,62.69
2023-04-26T05:20:50.763Z,62.69
2023-04-26T05:21:50.728Z,62.69
2023-04-26T05:22:50.718Z,62.69
2023-04-26T05:23:51.013Z,62.69
2023-04-26T05:24:50.688Z,62.69
2023-04-26T05:25:50.675Z,62.59
2023-04-26T05:26:50.660Z,62.59
2023-04-26T05:27:50.647Z,62.49
2023-04-26T05:28:50.642Z,62.49
2023-04-26T05:29:50.622Z,62.59
2023-04-26T05:30:50.612Z,62.49
2023-04-26T05:31:50.639Z,62.59
2023-04-26T05:32:50.636Z,62.49
2023-04-26T05:33:50.887Z,62.39
2023-04-26T05:34:50.552Z,62.39
2023-04-26T05:35:50.541Z,62.39
2023-04-26T05:36:50.549Z,62.39
2023-04-26T05:37:50.515Z,62.39
2023-04-26T05:38:50.499Z,62.49
2023-04-26T05:39:50.487Z,62.39
2023-04-26T05:40:50.472Z,62.39
2023-04-26T05:41:50.466Z,62.39
2023-04-26T05:42:50.446Z,62.39
2023-04-26T05:43:50.648Z,62.39
2023-04-26T05:44:50.425Z,62.39
2023-04-26T05:45:50.436Z,62.28
2023-04-26T05:46:50.392Z,62.18
2023-04-26T05:47:50.633Z,62.28
2023-04-26T05:48:50.367Z,62.28
2023-04-26T05:49:50.354Z,62.28
2023-04-26T05:50:50.339Z,62.25
2023-04-26T05:51:50.338Z,62.25
2023-04-26T05:52:50.350Z,62.28
2023-04-26T05:53:50.553Z,62.05
2023-04-26T05:54:50.285Z,62.15
2023-04-26T05:55:50.293Z,62.15
2023-04-26T05:56:50.264Z,62.15
2023-04-26T05:57:50.283Z,62.18
2023-04-26T05:58:50.228Z,62.28
2023-04-26T05:59:50.218Z,62.25
2023-04-26T06:00:50.203Z,62.25
2023-04-26T06:01:50.231Z,62.15
2023-04-26T06:02:50.283Z,62.28
2023-04-26T06:03:50.459Z,62.28
2023-04-26T06:04:50.308Z,62.25
2023-04-26T06:05:50.254Z,62.28
2023-04-26T06:06:50.130Z,62.28
2023-04-26T06:07:50.110Z,62.39
2023-04-26T06:08:50.125Z,62.39
2023-04-26T06:09:50.085Z,62.39
2023-04-26T06:10:50.095Z,62.49
2023-04-26T06:11:50.065Z,62.49
2023-04-26T06:12:50.047Z,62.49
2023-04-26T06:13:50.204Z,62.49
2023-04-26T06:14:50.017Z,62.59
2023-04-26T06:15:50.005Z,62.59
2023-04-26T06:16:50.041Z,62.69
2023-04-26T06:17:50.044Z,62.79
2023-04-26T06:18:49.970Z,62.90
2023-04-26T06:19:49.948Z,62.90
2023-04-26T06:20:49.967Z,62.90
2023-04-26T06:21:49.926Z,62.90
2023-04-26T06:22:49.919Z,62.69
2023-04-26T06:23:49.906Z,62.90
2023-04-26T06:24:49.909Z,63.00
2023-04-26T06:25:49.900Z,63.00
2023-04-26T06:26:49.854Z,63.10
2023-04-26T06:27:49.845Z,63.10
2023-04-26T06:28:49.831Z,63.10
2023-04-26T06:29:49.827Z,63.20
2023-04-26T06:30:49.827Z,63.20
2023-04-26T06:31:49.807Z,63.31
2023-04-26T06:32:49.828Z,63.31
2023-04-26T06:33:50.140Z,63.31
2023-04-26T06:34:49.753Z,63.31
2023-04-26T06:35:49.736Z,63.31
2023-04-26T06:36:49.725Z,63.31
2023-04-26T06:37:49.715Z,63.31
2023-04-26T06:38:49.693Z,63.31
2023-04-26T06:39:49.680Z,63.31
2023-04-26T06:40:49.694Z,63.31
2023-04-26T06:41:51.716Z,63.31
2023-04-26T06:42:49.642Z,63.31
2023-04-26T06:43:49.652Z,63.31
2023-04-26T06:44:49.617Z,63.40
2023-04-26T06:45:49.620Z,63.31
2023-04-26T06:46:49.632Z,63.31
2023-04-26T06:47:49.621Z,63.31
2023-04-26T06:48:49.561Z,63.31
2023-04-26T06:49:49.553Z,63.31
2023-04-26T06:50:49.535Z,63.10
2023-04-26T06:51:49.543Z,63.10
2023-04-26T06:52:49.508Z,63.10
2023-04-26T06:53:49.597Z,63.10
2023-04-26T06:54:56.538Z,63.10
2023-04-26T06:55:50.525Z,63.20
2023-04-26T06:56:49.478Z,63.13
2023-04-26T06:57:49.454Z,63.13
2023-04-26T06:58:49.428Z,63.13
2023-04-26T06:59:49.416Z,62.92
2023-04-26T07:00:49.400Z,63.03
2023-04-26T07:01:49.423Z,63.03
2023-04-26T07:02:49.533Z,63.03
2023-04-26T07:03:49.526Z,63.03
2023-04-26T07:04:49.531Z,62.92
2023-04-26T07:05:49.337Z,62.92
2023-04-26T07:06:49.321Z,62.82
2023-04-26T07:07:49.311Z,62.82
2023-04-26T07:08:49.292Z,62.82
2023-04-26T07:09:49.281Z,62.62
2023-04-26T07:10:49.267Z,62.72
2023-04-26T07:11:49.255Z,62.72
2023-04-26T07:12:49.271Z,62.72
2023-04-26T07:13:49.229Z,62.62
2023-04-26T07:14:49.213Z,62.62
2023-04-26T07:15:49.249Z,62.51
2023-04-26T07:16:49.193Z,62.51
2023-04-26T07:17:49.212Z,62.51
2023-04-26T07:18:49.161Z,62.31
2023-04-26T07:19:49.162Z,62.42
2023-04-26T07:20:49.134Z,62.31
2023-04-26T07:21:49.121Z,62.42
2023-04-26T07:22:49.108Z,62.21
2023-04-26T07:23:49.098Z,62.21
2023-04-26T07:24:49.084Z,62.10
2023-04-26T07:25:49.069Z,62.21
2023-04-26T07:26:49.055Z,62.10
2023-04-26T07:27:49.039Z,62.00
2023-04-26T07:28:49.065Z,62.00
2023-04-26T07:29:49.017Z,62.00
2023-04-26T07:30:49.004Z,62.00
2023-04-26T07:31:48.985Z,61.90
2023-04-26T07:32:49.130Z,62.00
2023-04-26T07:33:49.009Z,62.00
2023-04-26T07:34:48.982Z,61.80
2023-04-26T07:35:48.935Z,61.80
2023-04-26T07:36:48.920Z,61.59
2023-04-26T07:37:48.907Z,61.59
2023-04-26T07:38:48.890Z,61.49
2023-04-26T07:39:48.881Z,61.49
2023-04-26T07:40:48.866Z,61.49
2023-04-26T07:41:48.854Z,61.49
2023-04-26T07:42:48.845Z,61.49
2023-04-26T07:43:48.823Z,61.49
2023-04-26T07:44:48.837Z,61.49
2023-04-26T07:45:48.822Z,61.39
2023-04-26T07:46:48.783Z,61.29
2023-04-26T07:47:48.822Z,61.39
2023-04-26T07:48:48.773Z,61.39
2023-04-26T07:49:48.745Z,61.18
2023-04-26T07:50:48.734Z,61.29
2023-04-26T07:51:48.718Z,61.39
2023-04-26T07:52:48.707Z,61.29
2023-04-26T07:53:48.696Z,60.98
2023-04-26T07:54:48.681Z,60.88
2023-04-26T07:55:48.673Z,61.09
2023-04-26T07:56:48.654Z,61.09
2023-04-26T07:57:48.644Z,61.09
2023-04-26T07:58:48.646Z,60.98
2023-04-26T07:59:48.609Z,61.09
2023-04-26T08:00:48.816Z,61.09
2023-04-26T08:01:48.626Z,61.18
2023-04-26T08:02:48.676Z,61.29
2023-04-26T08:03:48.948Z,61.29
2023-04-26T08:04:48.885Z,61.39
2023-04-26T08:05:48.945Z,61.39
2023-04-26T08:06:48.524Z,61.29
2023-04-26T08:07:48.510Z,61.39
2023-04-26T08:08:48.494Z,61.39
2023-04-26T08:09:48.542Z,61.09
2023-04-26T08:10:48.463Z,60.77
2023-04-26T08:11:48.467Z,60.77
2023-04-26T08:12:48.434Z,60.98
2023-04-26T08:13:48.421Z,60.88
2023-04-26T08:14:48.411Z,60.98
2023-04-26T08:15:48.394Z,61.09
2023-04-26T08:16:48.467Z,61.09
2023-04-26T08:17:48.440Z,61.09
2023-04-26T08:18:48.357Z,60.77
2023-04-26T08:19:48.340Z,60.47
2023-04-26T08:20:48.341Z,60.16
2023-04-26T08:21:48.320Z,60.47
2023-04-26T08:22:48.304Z,60.47
2023-04-26T08:23:48.294Z,60.47
2023-04-26T08:24:48.275Z,60.26
2023-04-26T08:25:48.257Z,60.06
2023-04-26T08:26:48.243Z,59.85
2023-04-26T08:27:48.232Z,59.85
2023-04-26T08:28:48.221Z,59.96
2023-04-26T08:29:48.204Z,59.65
2023-04-26T08:30:48.307Z,59.14
2023-04-26T08:31:48.178Z,58.42
2023-04-26T08:32:48.251Z,58.83
2023-04-26T08:33:48.161Z,59.24
2023-04-26T08:34:48.140Z,59.35
2023-04-26T08:35:48.127Z,59.44
2023-04-26T08:36:48.114Z,59.85
2023-04-26T08:37:48.098Z,59.55
2023-04-26T08:38:48.086Z,59.55
2023-04-26T08:39:48.079Z,59.65
2023-04-26T08:40:48.057Z,59.65
2023-04-26T08:41:48.045Z,59.55
2023-04-26T08:42:48.031Z,59.44
2023-04-26T08:43:48.018Z,59.44
2023-04-26T08:44:48.013Z,59.55
2023-04-26T08:45:48.078Z,59.44
2023-04-26T08:46:48.075Z,59.55
2023-04-26T08:47:47.996Z,59.55
2023-04-26T08:48:48.009Z,59.44
2023-04-26T08:49:47.937Z,59.44
2023-04-26T08:50:47.932Z,59.35
2023-04-26T08:51:47.923Z,59.35
2023-04-26T08:52:47.908Z,58.83
2023-04-26T08:53:47.883Z,59.03
2023-04-26T08:54:47.874Z,59.14
2023-04-26T08:55:47.858Z,59.14
2023-04-26T08:56:47.844Z,59.14
2023-04-26T08:57:47.830Z,59.14
2023-04-26T08:58:47.821Z,59.14
2023-04-26T08:59:47.810Z,59.03
2023-04-26T09:00:47.809Z,58.80
2023-04-26T09:01:47.875Z,58.83
2023-04-26T09:02:47.860Z,58.83
2023-04-26T09:03:47.962Z,58.73
2023-04-26T09:04:47.944Z,58.83
2023-04-26T09:05:47.731Z,58.83
2023-04-26T09:06:47.715Z,58.63
2023-04-26T09:07:47.727Z,58.42
2023-04-26T09:08:47.694Z,58.42
2023-04-26T09:09:47.680Z,58.52
2023-04-26T09:10:47.664Z,58.42
2023-04-26T09:11:47.650Z,58.19
2023-04-26T09:12:47.634Z,58.29
2023-04-26T09:13:47.622Z,58.11
2023-04-26T09:14:47.610Z,57.98
2023-04-26T09:15:47.617Z,57.98
2023-04-26T09:16:47.581Z,58.09
2023-04-26T09:17:47.592Z,57.88
2023-04-26T09:18:47.551Z,57.88
2023-04-26T09:19:47.553Z,57.58
2023-04-26T09:20:47.693Z,57.68
2023-04-26T09:21:47.511Z,57.70
2023-04-26T09:22:47.499Z,57.50
2023-04-26T09:23:47.483Z,57.47
2023-04-26T09:24:47.471Z,57.37
2023-04-26T09:25:47.457Z,57.58
2023-04-26T09:26:47.463Z,57.27
2023-04-26T09:27:47.445Z,57.27
2023-04-26T09:28:47.452Z,57.37
2023-04-26T09:29:47.402Z,57.37
2023-04-26T09:30:47.395Z,57.19
2023-04-26T09:31:49.578Z,57.29
2023-04-26T09:32:47.510Z,57.09
2023-04-26T09:33:47.349Z,57.19
2023-04-26T09:34:47.340Z,57.09
2023-04-26T09:35:47.327Z,56.99
2023-04-26T09:36:47.342Z,56.99
2023-04-26T09:37:57.510Z,56.99
2023-04-26T09:38:48.324Z,56.78
2023-04-26T09:39:47.266Z,56.86
2023-04-26T09:40:47.259Z,56.97
2023-04-26T09:41:47.241Z,56.97
2023-04-26T09:42:47.229Z,56.76
2023-04-26T09:43:47.214Z,56.65
2023-04-26T09:44:47.202Z,57.06
2023-04-26T09:45:47.197Z,56.97
2023-04-26T09:46:47.217Z,56.65
2023-04-26T09:47:47.186Z,56.56
2023-04-26T09:48:47.918Z,56.56
2023-04-26T09:49:47.232Z,56.65
2023-04-26T09:50:47.130Z,56.56
2023-04-26T09:51:47.107Z,56.45
2023-04-26T09:52:47.120Z,56.35
2023-04-26T09:53:47.110Z,56.35
2023-04-26T09:54:47.076Z,56.35
2023-04-26T09:55:47.050Z,56.35
2023-04-26T09:56:47.051Z,56.45
2023-04-26T09:57:47.025Z,56.25
2023-04-26T09:58:47.023Z,56.35
2023-04-26T09:59:46.998Z,56.25
2023-04-26T10:00:46.992Z,56.35
2023-04-26T10:01:46.972Z,56.25
2023-04-26T10:02:47.023Z,56.35
2023-04-26T10:03:47.366Z,56.35
2023-04-26T10:04:46.973Z,56.15
2023-04-26T10:05:46.921Z,56.25
2023-04-26T10:06:46.908Z,56.15
2023-04-26T10:07:46.897Z,56.15
2023-04-26T10:08:46.924Z,56.25
2023-04-26T10:09:46.866Z,56.35
2023-04-26T10:10:46.853Z,56.35
2023-04-26T10:11:46.839Z,56.25
2023-04-26T10:12:46.826Z,56.15
2023-04-26T10:13:46.811Z,56.35
2023-04-26T10:14:46.796Z,56.35
2023-04-26T10:15:46.784Z,56.35
2023-04-26T10:16:46.801Z,56.35
2023-04-26T10:17:46.783Z,56.45
2023-04-26T10:18:46.750Z,56.45
2023-04-26T10:19:46.834Z,56.45
2023-04-26T10:20:46.718Z,56.35
2023-04-26T10:21:46.705Z,56.45
2023-04-26T10:22:46.692Z,56.35
2023-04-26T10:23:46.676Z,56.35
2023-04-26T10:24:46.724Z,56.35
2023-04-26T10:25:46.653Z,56.25
2023-04-26T10:26:46.648Z,56.04
2023-04-26T10:27:46.624Z,56.15
2023-04-26T10:28:46.612Z,56.25
2023-04-26T10:29:46.621Z,56.35
2023-04-26T10:30:46.588Z,56.25
2023-04-26T10:31:46.599Z,56.25
2023-04-26T10:32:46.576Z,56.04
2023-04-26T10:33:46.545Z,56.15
2023-04-26T10:34:46.532Z,56.25
2023-04-26T10:35:46.518Z,56.35
2023-04-26T10:36:46.508Z,56.35
2023-04-26T10:37:46.492Z,56.35
2023-04-26T10:38:46.478Z,55.94
2023-04-26T10:39:46.546Z,56.04
2023-04-26T10:40:46.521Z,55.94
2023-04-26T10:41:46.436Z,56.04
2023-04-26T10:42:46.426Z,55.53
2023-04-26T10:43:46.412Z,55.43
2023-04-26T10:44:46.402Z,55.53
2023-04-26T10:45:46.433Z,55.32
2023-04-26T10:46:46.374Z,55.32
2023-04-26T10:47:46.384Z,55.23
2023-04-26T10:48:46.345Z,55.32
2023-04-26T10:49:46.339Z,55.32
2023-04-26T10:50:46.320Z,55.32
2023-04-26T10:51:46.307Z,55.43
2023-04-26T10:52:46.291Z,55.43
2023-04-26T10:53:46.274Z,55.32
2023-04-26T10:54:46.267Z,55.43
2023-04-26T10:55:46.251Z,55.23
2023-04-26T10:56:46.265Z,55.23
2023-04-26T10:57:46.224Z,55.23
2023-04-26T10:58:46.213Z,55.23
2023-04-26T10:59:54.354Z,55.02
2023-04-26T11:00:47.226Z,55.23
2023-04-26T11:01:46.393Z,55.23
2023-04-26T11:02:46.235Z,55.02
2023-04-26T11:03:46.358Z,54.91
2023-04-26T11:04:46.164Z,54.91
2023-04-26T11:05:46.117Z,54.91
2023-04-26T11:06:46.106Z,54.71
2023-04-26T11:07:46.089Z,54.71
2023-04-26T11:08:46.082Z,54.82
2023-04-26T11:09:46.062Z,54.61
2023-04-26T11:10:46.072Z,54.71
2023-04-26T11:11:46.034Z,54.71
2023-04-26T11:12:46.063Z,54.71
2023-04-26T11:13:46.007Z,54.71
2023-04-26T11:14:46.025Z,54.71
2023-04-26T11:15:46.047Z,54.71
2023-04-26T11:16:46.004Z,54.51
2023-04-26T11:17:46.077Z,54.61
2023-04-26T11:18:45.941Z,54.41
2023-04-26T11:19:45.929Z,54.30
2023-04-26T11:20:45.916Z,54.61
2023-04-26T11:21:45.912Z,54.41
2023-04-26T11:22:45.890Z,54.51
2023-04-26T11:23:45.875Z,54.51
2023-04-26T11:24:45.864Z,54.61
2023-04-26T11:25:45.847Z,54.71
2023-04-26T11:26:45.837Z,54.71
2023-04-26T11:27:45.825Z,54.30
2023-04-26T11:28:45.872Z,54.71
2023-04-26T11:29:45.797Z,54.71
2023-04-26T11:30:45.783Z,54.61
2023-04-26T11:31:45.789Z,54.61
2023-04-26T11:32:45.801Z,54.61
2023-04-26T11:33:46.424Z,54.51
2023-04-26T11:34:45.733Z,54.30
2023-04-26T11:35:45.720Z,54.41
2023-04-26T11:36:45.701Z,53.90
2023-04-26T11:37:45.686Z,54.10
2023-04-26T11:38:45.676Z,54.20
2023-04-26T11:39:45.660Z,53.59
2023-04-26T11:40:45.648Z,53.90
2023-04-26T11:41:45.639Z,54.10
2023-04-26T11:42:45.634Z,54.20
2023-04-26T11:43:45.651Z,54.30
2023-04-26T11:44:45.793Z,54.20
2023-04-26T11:45:45.579Z,54.30
2023-04-26T11:46:45.579Z,54.20
2023-04-26T11:47:45.636Z,54.10
2023-04-26T11:48:45.541Z,54.00
2023-04-26T11:49:45.535Z,54.00
2023-04-26T11:50:45.516Z,53.90
2023-04-26T11:51:45.505Z,53.79
2023-04-26T11:52:45.488Z,53.69
2023-04-26T11:53:45.504Z,53.59
2023-04-26T11:54:45.466Z,53.59
2023-04-26T11:55:45.445Z,53.69
2023-04-26T11:56:45.438Z,53.79
2023-04-26T11:57:45.420Z,53.69
2023-04-26T11:58:45.406Z,53.49
2023-04-26T11:59:45.411Z,53.69
2023-04-26T12:00:45.412Z,53.59
2023-04-26T12:01:45.399Z,53.49
2023-04-26T12:02:45.521Z,53.69
2023-04-26T12:03:45.467Z,53.49
2023-04-26T12:04:45.714Z,53.49
2023-04-26T12:05:45.319Z,53.49
2023-04-26T12:06:45.294Z,53.69
2023-04-26T12:07:45.286Z,53.59
2023-04-26T12:08:45.269Z,53.69
2023-04-26T12:09:45.275Z,53.69
2023-04-26T12:10:45.241Z,53.59
2023-04-26T12:11:45.227Z,53.59
2023-04-26T12:12:45.219Z,53.59
2023-04-26T12:13:45.220Z,53.59
2023-04-26T12:14:45.190Z,53.59
2023-04-26T12:15:45.178Z,53.49
2023-04-26T12:16:45.284Z,53.59
2023-04-26T12:17:45.201Z,53.49
2023-04-26T12:18:45.138Z,53.49
2023-04-26T12:19:45.124Z,53.49
2023-04-26T12:20:45.112Z,53.49
2023-04-26T12:21:45.111Z,53.59
2023-04-26T12:22:45.083Z,53.59
2023-04-26T12:23:45.074Z,53.49
2023-04-26T12:24:45.055Z,53.59
2023-04-26T12:25:45.047Z,53.59
2023-04-26T12:26:45.061Z,53.46
2023-04-26T12:27:45.018Z,53.49
2023-04-26T12:28:45.003Z,53.46
2023-04-26T12:29:44.993Z,53.49
2023-04-26T12:30:44.981Z,53.38
2023-04-26T12:31:44.978Z,53.38
2023-04-26T12:32:45.080Z,53.49
2023-04-26T12:33:44.953Z,53.38
2023-04-26T12:34:44.922Z,53.38
2023-04-26T12:35:44.918Z,53.49
2023-04-26T12:36:44.896Z,53.59
2023-04-26T12:37:44.881Z,53.79
2023-04-26T12:38:44.869Z,53.69
2023-04-26T12:39:44.856Z,53.59
2023-04-26T12:40:44.848Z,53.59
2023-04-26T12:41:44.898Z,53.59
2023-04-26T12:42:44.814Z,53.59
2023-04-26T12:43:44.806Z,53.69
2023-04-26T12:44:44.789Z,53.49
2023-04-26T12:45:44.830Z,53.59
2023-04-26T12:46:44.797Z,53.59
2023-04-26T12:47:44.808Z,53.59
2023-04-26T12:48:44.820Z,53.38
2023-04-26T12:49:44.733Z,53.49
2023-04-26T12:50:44.724Z,53.38
2023-04-26T12:51:44.734Z,53.49
2023-04-26T12:52:44.684Z,53.28